PRC weather

Puertecitos Airport
Ensenada, Baja California, Mexico

Public forecast

Using degrees Celsius for public forecast. Weather courtesy of forecast.io.

Closest aviation weather report (METAR) to Puertecitos Airport

Closest report is (Old) Puerto PeƱasco Airport, 83.2 nm (154.0 km) NE. Retrieved UTC (0 seconds ago):

Closest aviation forecast (TAF) to Puertecitos Airport

Closest forecast is General Ignacio P. Garcia International Airport, 201.9 nm (373.9 km) ESE. Retrieved 2020/06/01 18:09 UTC (1 hour ago):

TAF MMHO 011706Z 0118/0218 26012KT P6SM SKC BECMG 0200/0201 00000KT FM021500 12010KT P6SM SKC